createdAt,value
2019-03-29T00:00:41.940Z,384.85
2019-03-29T00:03:11.520Z,380.12
2019-03-29T00:05:41.188Z,362.32
2019-03-29T00:08:10.899Z,364.08
2019-03-29T00:10:40.582Z,375.02
2019-03-29T00:13:14.659Z,379.60
2019-03-29T00:15:43.563Z,367.02
2019-03-29T00:18:13.360Z,362.38
2019-03-29T00:20:43.002Z,359.02
2019-03-29T00:23:12.710Z,374.27
2019-03-29T00:25:42.455Z,368.67
2019-03-29T00:28:12.149Z,369.45
2019-03-29T00:30:41.900Z,397.30
2019-03-29T00:33:11.642Z,369.77
2019-03-29T00:35:41.334Z,365.60
2019-03-29T00:38:11.153Z,362.95
2019-03-29T00:40:40.925Z,363.20
2019-03-29T00:43:10.575Z,374.20
2019-03-29T00:45:40.189Z,377.90
2019-03-29T00:48:09.947Z,359.70
2019-03-29T00:50:39.637Z,372.20
2019-03-29T00:53:09.465Z,371.80
2019-03-29T00:55:39.148Z,357.48
2019-03-29T00:58:09.055Z,388.07
2019-03-29T01:00:38.833Z,370.82
2019-03-29T01:03:08.546Z,369.15
2019-03-29T01:05:38.484Z,371.32
2019-03-29T01:08:10.482Z,368.73
2019-03-29T01:10:40.244Z,382.62
2019-03-29T01:13:10.065Z,373.50
2019-03-29T01:15:39.766Z,373.85
2019-03-29T01:18:09.400Z,378.85
2019-03-29T01:20:39.200Z,390.30
2019-03-29T01:23:09.032Z,369.30
2019-03-29T01:25:38.685Z,394.73
2019-03-29T01:28:08.365Z,387.12
2019-03-29T01:30:38.103Z,386.70
2019-03-29T01:33:07.742Z,371.35
2019-03-29T01:35:37.399Z,379.98
2019-03-29T01:38:20.733Z,380.27
2019-03-29T01:40:38.595Z,391.90
2019-03-29T01:43:08.445Z,368.77
2019-03-29T01:45:38.183Z,388.57
2019-03-29T01:48:07.919Z,376.37
2019-03-29T01:50:37.691Z,355.37
2019-03-29T01:53:07.408Z,371.73
2019-03-29T01:55:37.129Z,375.82
2019-03-29T01:58:06.898Z,390.15
2019-03-29T02:00:36.615Z,365.92
2019-03-29T02:03:07.387Z,373.13
2019-03-29T02:05:37.092Z,380.92
2019-03-29T02:08:06.815Z,387.45
2019-03-29T02:10:36.570Z,390.75
2019-03-29T02:13:06.416Z,377.52
2019-03-29T02:15:36.157Z,370.02
2019-03-29T02:18:05.916Z,356.40
2019-03-29T02:20:36.023Z,373.70
2019-03-29T02:23:05.776Z,393.80
2019-03-29T02:25:35.436Z,379.55
2019-03-29T02:28:05.233Z,370.15
2019-03-29T02:30:35.029Z,415.08
2019-03-29T02:33:04.992Z,384.37
2019-03-29T02:35:34.744Z,390.12
2019-03-29T02:38:04.410Z,385.35
2019-03-29T02:40:34.291Z,383.30
2019-03-29T02:43:04.067Z,370.85
2019-03-29T02:45:34.157Z,413.12
2019-03-29T02:48:03.815Z,375.15
2019-03-29T02:50:33.448Z,377.62
2019-03-29T02:53:03.204Z,371.98
2019-03-29T02:55:32.990Z,383.57
2019-03-29T02:58:02.633Z,369.05
2019-03-29T03:00:32.293Z,371.52
2019-03-29T03:03:02.082Z,377.43
2019-03-29T03:05:31.819Z,359.45
2019-03-29T03:08:01.497Z,353.12
2019-03-29T03:10:31.134Z,374.58
2019-03-29T03:13:00.924Z,362.08
2019-03-29T03:15:30.567Z,352.22
2019-03-29T03:18:00.344Z,358.55
2019-03-29T03:20:30.155Z,360.35
2019-03-29T03:22:59.874Z,348.57
2019-03-29T03:25:29.590Z,360.93
2019-03-29T03:27:59.297Z,371.40
2019-03-29T03:30:29.029Z,391.35
2019-03-29T03:32:58.775Z,366.57
2019-03-29T03:35:28.496Z,375.50
2019-03-29T03:37:58.166Z,365.00
2019-03-29T03:40:27.777Z,362.77
2019-03-29T03:42:57.464Z,368.07
2019-03-29T03:45:27.074Z,366.65
2019-03-29T03:47:56.949Z,388.00
2019-03-29T03:50:29.676Z,378.58
2019-03-29T03:52:59.522Z,384.77
2019-03-29T03:55:30.361Z,354.43
2019-03-29T03:58:00.636Z,359.12
2019-03-29T04:00:33.421Z,361.90
2019-03-29T04:03:03.174Z,359.83
2019-03-29T04:05:32.828Z,370.33
2019-03-29T04:08:02.540Z,361.80
2019-03-29T04:10:32.201Z,339.38
2019-03-29T04:13:01.844Z,346.30
2019-03-29T04:15:31.496Z,373.90
2019-03-29T04:18:01.327Z,361.12
2019-03-29T04:20:31.008Z,368.25
2019-03-29T04:23:00.598Z,345.10
2019-03-29T04:25:30.316Z,357.20
2019-03-29T04:28:00.051Z,353.65
2019-03-29T04:30:29.705Z,340.98
2019-03-29T04:32:59.369Z,347.63
2019-03-29T04:35:29.001Z,350.22
2019-03-29T04:37:58.643Z,340.67
2019-03-29T04:40:28.265Z,359.20
2019-03-29T04:42:57.924Z,381.35
2019-03-29T04:45:27.670Z,350.60
2019-03-29T04:47:57.362Z,357.92
2019-03-29T04:50:27.050Z,347.73
2019-03-29T04:52:56.707Z,355.27
2019-03-29T04:55:26.346Z,348.93
2019-03-29T04:57:55.968Z,353.15
2019-03-29T05:00:25.606Z,354.40
2019-03-29T05:02:55.396Z,341.55
2019-03-29T05:05:25.034Z,365.12
2019-03-29T05:07:54.862Z,351.45
2019-03-29T05:10:24.510Z,340.35
2019-03-29T05:12:54.234Z,342.00
2019-03-29T05:15:23.904Z,348.40
2019-03-29T05:17:53.589Z,349.50
2019-03-29T05:20:23.505Z,343.30
2019-03-29T05:22:53.103Z,348.15
2019-03-29T05:25:23.047Z,329.98
2019-03-29T05:27:52.794Z,324.92
2019-03-29T05:30:22.554Z,350.70
2019-03-29T05:32:52.220Z,354.15
2019-03-29T05:35:21.996Z,337.40
2019-03-29T05:37:51.653Z,324.35
2019-03-29T05:40:34.298Z,337.32
2019-03-29T05:42:52.775Z,347.80
2019-03-29T05:45:22.627Z,334.37
2019-03-29T05:47:52.266Z,348.68
2019-03-29T05:50:22.045Z,333.87
2019-03-29T05:52:51.717Z,348.43
2019-03-29T05:55:32.095Z,344.75
2019-03-29T05:57:52.732Z,351.67
2019-03-29T06:00:22.404Z,360.73
2019-03-29T06:02:52.116Z,347.65
2019-03-29T06:05:22.028Z,341.93
2019-03-29T06:07:51.765Z,354.60
2019-03-29T06:10:21.589Z,362.88
2019-03-29T06:12:51.191Z,378.73
2019-03-29T06:15:20.825Z,383.35
2019-03-29T06:17:50.463Z,366.02
2019-03-29T06:20:20.257Z,395.93
2019-03-29T06:22:49.839Z,368.48
2019-03-29T06:25:19.599Z,385.85
2019-03-29T06:27:49.234Z,377.15
2019-03-29T06:30:22.021Z,367.25
2019-03-29T06:32:51.651Z,376.42
2019-03-29T06:35:21.480Z,362.02
2019-03-29T06:37:51.198Z,351.82
2019-03-29T06:40:24.067Z,345.95
2019-03-29T06:42:53.784Z,375.82
2019-03-29T06:45:23.537Z,355.15
2019-03-29T06:47:53.149Z,373.52
2019-03-29T06:50:22.859Z,357.92
2019-03-29T06:52:52.611Z,366.70
2019-03-29T06:55:22.323Z,389.48
2019-03-29T06:57:52.018Z,376.97
2019-03-29T07:00:21.667Z,400.15
2019-03-29T07:02:51.403Z,401.57
2019-03-29T07:05:21.306Z,417.73
2019-03-29T07:07:51.084Z,426.63
2019-03-29T07:10:20.911Z,410.00
2019-03-29T07:12:50.568Z,427.02
2019-03-29T07:15:20.248Z,415.38
2019-03-29T07:17:49.935Z,413.90
2019-03-29T07:20:21.370Z,411.90
2019-03-29T07:22:51.009Z,446.30
2019-03-29T07:25:20.797Z,444.17
2019-03-29T07:27:52.321Z,420.80
2019-03-29T07:30:23.852Z,454.20
2019-03-29T07:32:53.597Z,469.85
2019-03-29T07:35:23.195Z,469.07
2019-03-29T07:37:52.963Z,425.70
2019-03-29T07:40:22.727Z,420.05
2019-03-29T07:42:52.539Z,438.98
2019-03-29T07:45:22.323Z,436.08
2019-03-29T07:47:52.021Z,447.37
2019-03-29T07:50:21.705Z,418.30
2019-03-29T07:52:51.481Z,440.60
2019-03-29T07:55:21.243Z,419.52
2019-03-29T07:57:51.072Z,413.45
2019-03-29T08:00:20.843Z,423.80
2019-03-29T08:02:50.598Z,420.00
2019-03-29T08:05:20.316Z,418.30
2019-03-29T08:07:49.998Z,422.07
2019-03-29T08:10:27.537Z,430.77
2019-03-29T08:12:51.000Z,442.68
2019-03-29T08:15:20.626Z,438.00
2019-03-29T08:17:50.470Z,419.58
2019-03-29T08:20:45.086Z,448.05
2019-03-29T08:22:51.684Z,419.13
2019-03-29T08:25:21.478Z,420.55
2019-03-29T08:27:51.118Z,436.65
2019-03-29T08:30:20.810Z,414.15
2019-03-29T08:32:50.460Z,440.70
2019-03-29T08:35:20.256Z,435.02
2019-03-29T08:37:49.897Z,455.43
2019-03-29T08:40:19.769Z,452.28
2019-03-29T08:42:49.476Z,444.32
2019-03-29T08:45:19.316Z,451.33
2019-03-29T08:47:48.979Z,452.05
2019-03-29T08:50:18.795Z,452.62
2019-03-29T08:52:48.628Z,446.20
2019-03-29T08:55:18.303Z,434.85
2019-03-29T08:57:47.951Z,434.93
2019-03-29T09:00:20.661Z,429.37
2019-03-29T09:02:50.335Z,438.80
2019-03-29T09:05:19.981Z,444.15
2019-03-29T09:07:49.717Z,440.92
2019-03-29T09:10:22.449Z,447.60
2019-03-29T09:12:52.166Z,437.72
2019-03-29T09:15:23.649Z,425.65
2019-03-29T09:17:53.345Z,433.80
2019-03-29T09:20:23.121Z,466.15
2019-03-29T09:22:52.856Z,442.87
2019-03-29T09:25:22.590Z,443.65
2019-03-29T09:27:52.389Z,431.07
2019-03-29T09:30:22.088Z,412.60
2019-03-29T09:32:51.885Z,409.35
2019-03-29T09:35:21.545Z,403.30
2019-03-29T09:37:51.313Z,435.25
2019-03-29T09:40:21.215Z,428.27
2019-03-29T09:43:06.154Z,436.15
2019-03-29T09:45:22.507Z,419.05
2019-03-29T09:47:52.154Z,416.38
2019-03-29T09:50:23.072Z,412.00
2019-03-29T09:52:53.029Z,442.65
2019-03-29T09:55:22.954Z,439.13
2019-03-29T09:57:52.626Z,419.00
2019-03-29T10:00:23.469Z,405.85
2019-03-29T10:02:53.652Z,404.57
2019-03-29T10:05:23.367Z,405.87
2019-03-29T10:07:53.074Z,402.02
2019-03-29T10:10:22.744Z,435.35
2019-03-29T10:12:52.559Z,401.60
2019-03-29T10:15:22.243Z,408.48
2019-03-29T10:17:51.966Z,395.63
2019-03-29T10:20:21.710Z,374.67
2019-03-29T10:22:51.411Z,396.23
2019-03-29T10:25:21.746Z,379.50
2019-03-29T10:27:51.668Z,374.50
2019-03-29T10:30:24.457Z,398.23
2019-03-29T10:32:55.506Z,394.32
2019-03-29T10:35:25.246Z,381.77
2019-03-29T10:37:54.890Z,386.62
2019-03-29T10:40:24.579Z,382.15
2019-03-29T10:42:58.128Z,385.32
2019-03-29T10:45:25.937Z,382.75
2019-03-29T10:47:55.660Z,391.50
2019-03-29T10:50:25.405Z,379.98
2019-03-29T10:52:55.056Z,393.15
2019-03-29T10:55:24.900Z,377.52
2019-03-29T10:57:54.649Z,382.92
2019-03-29T11:00:27.508Z,379.83
2019-03-29T11:02:57.189Z,410.70
2019-03-29T11:05:26.991Z,373.98
2019-03-29T11:07:56.738Z,399.62
2019-03-29T11:10:29.638Z,375.95
2019-03-29T11:13:11.774Z,376.25
2019-03-29T11:15:31.274Z,367.30
2019-03-29T11:18:00.952Z,367.30
2019-03-29T11:20:30.768Z,357.10
2019-03-29T11:23:00.415Z,361.80
2019-03-29T11:25:30.180Z,376.48
2019-03-29T11:27:59.911Z,351.88
2019-03-29T11:30:41.512Z,360.15
2019-03-29T11:33:01.078Z,342.80
2019-03-29T11:35:30.796Z,350.45
2019-03-29T11:38:00.510Z,375.95
2019-03-29T11:40:31.835Z,367.32
2019-03-29T11:43:01.599Z,361.02
2019-03-29T11:45:31.728Z,375.45
2019-03-29T11:48:08.251Z,365.02
2019-03-29T11:50:32.945Z,343.35
2019-03-29T11:53:02.617Z,349.32
2019-03-29T11:55:32.266Z,332.80
2019-03-29T11:58:02.105Z,318.25
2019-03-29T12:00:34.401Z,362.25
2019-03-29T12:03:04.331Z,331.02
2019-03-29T12:05:36.238Z,328.62
2019-03-29T12:08:06.378Z,351.75
2019-03-29T12:10:36.183Z,348.35
2019-03-29T12:13:07.168Z,361.10
2019-03-29T12:15:37.232Z,350.60
2019-03-29T12:18:07.299Z,350.02
2019-03-29T12:20:37.265Z,354.55
2019-03-29T12:23:07.154Z,330.48
2019-03-29T12:25:36.909Z,351.67
2019-03-29T12:28:07.080Z,324.93
2019-03-29T12:30:37.410Z,343.60
2019-03-29T12:33:07.224Z,344.45
2019-03-29T12:35:37.054Z,337.50
2019-03-29T12:38:06.971Z,335.17
2019-03-29T12:40:36.808Z,346.68
2019-03-29T12:43:06.630Z,339.93
2019-03-29T12:45:36.476Z,336.25
2019-03-29T12:48:06.184Z,328.50
2019-03-29T12:50:35.932Z,330.95
2019-03-29T12:53:05.795Z,337.08
2019-03-29T12:55:35.429Z,348.95
2019-03-29T12:58:05.308Z,321.43
2019-03-29T13:00:35.112Z,321.13
2019-03-29T13:03:04.981Z,322.60
2019-03-29T13:05:34.675Z,352.57
2019-03-29T13:08:04.428Z,332.25
2019-03-29T13:10:34.153Z,327.93
2019-03-29T13:13:03.991Z,344.82
2019-03-29T13:15:33.718Z,328.02
2019-03-29T13:18:03.551Z,326.82
2019-03-29T13:20:33.504Z,328.50
2019-03-29T13:23:03.292Z,352.27
2019-03-29T13:25:33.055Z,358.50
2019-03-29T13:28:02.815Z,358.75
2019-03-29T13:30:32.470Z,357.37
2019-03-29T13:33:02.131Z,336.90
2019-03-29T13:35:31.843Z,332.02
2019-03-29T13:38:01.612Z,345.33
2019-03-29T13:40:31.521Z,321.90
2019-03-29T13:43:01.350Z,333.50
2019-03-29T13:45:31.209Z,351.75
2019-03-29T13:48:00.917Z,352.90
2019-03-29T13:50:30.649Z,337.70
2019-03-29T13:53:01.939Z,347.55
2019-03-29T13:55:31.664Z,342.30
2019-03-29T13:58:01.479Z,370.05
2019-03-29T14:00:31.196Z,346.85
2019-03-29T14:03:00.894Z,324.02
2019-03-29T14:05:30.641Z,338.75
2019-03-29T14:08:00.477Z,345.40
2019-03-29T14:10:30.123Z,319.05
2019-03-29T14:12:59.810Z,338.30
2019-03-29T14:15:29.549Z,334.57
2019-03-29T14:17:59.336Z,358.68
2019-03-29T14:20:31.612Z,343.02
2019-03-29T14:23:02.372Z,345.35
2019-03-29T14:25:32.105Z,319.10
2019-03-29T14:28:01.908Z,341.15
2019-03-29T14:30:31.570Z,350.73
2019-03-29T14:33:01.207Z,338.60
2019-03-29T14:35:30.952Z,341.02
2019-03-29T14:38:00.550Z,341.27
2019-03-29T14:40:30.199Z,310.03
2019-03-29T14:43:00.020Z,335.48
2019-03-29T14:45:29.722Z,323.40
2019-03-29T14:47:59.328Z,329.18
2019-03-29T14:50:29.128Z,330.55
2019-03-29T14:52:58.798Z,333.55
2019-03-29T14:55:28.691Z,318.73
2019-03-29T14:57:58.487Z,343.27
2019-03-29T15:00:31.324Z,331.63
2019-03-29T15:03:00.971Z,319.20
2019-03-29T15:05:30.610Z,336.57
2019-03-29T15:08:00.385Z,335.52
2019-03-29T15:10:30.253Z,314.82
2019-03-29T15:13:00.089Z,348.43
2019-03-29T15:15:29.851Z,344.37
2019-03-29T15:17:59.574Z,331.30
2019-03-29T15:20:29.329Z,313.65
2019-03-29T15:22:58.929Z,347.65
2019-03-29T15:25:28.745Z,301.65
2019-03-29T15:27:58.570Z,326.95
2019-03-29T15:30:28.381Z,319.40
2019-03-29T15:32:58.097Z,330.07
2019-03-29T15:35:27.814Z,324.40
2019-03-29T15:38:00.246Z,347.00
2019-03-29T15:40:30.009Z,339.15
2019-03-29T15:42:59.762Z,336.40
2019-03-29T15:45:29.666Z,331.87
2019-03-29T15:47:59.296Z,328.58
2019-03-29T15:50:29.074Z,328.73
2019-03-29T15:52:58.688Z,352.00
2019-03-29T15:55:28.346Z,342.05
2019-03-29T15:57:57.987Z,328.30
2019-03-29T16:00:27.764Z,337.00
2019-03-29T16:02:58.419Z,325.32
2019-03-29T16:05:28.169Z,338.05
2019-03-29T16:07:57.939Z,323.90
2019-03-29T16:10:27.606Z,320.95
2019-03-29T16:12:57.380Z,333.47
2019-03-29T16:15:34.867Z,349.40
2019-03-29T16:17:58.369Z,355.05
2019-03-29T16:20:28.299Z,320.95
2019-03-29T16:22:57.941Z,325.43
2019-03-29T16:25:27.659Z,334.52
2019-03-29T16:27:57.369Z,320.55
2019-03-29T16:30:27.019Z,327.43
2019-03-29T16:32:56.817Z,315.55
2019-03-29T16:35:26.519Z,299.57
2019-03-29T16:37:57.325Z,317.70
2019-03-29T16:40:30.712Z,330.80
2019-03-29T16:42:58.785Z,303.35
2019-03-29T16:45:28.680Z,322.05
2019-03-29T16:47:58.548Z,324.93
2019-03-29T16:50:28.257Z,334.27
2019-03-29T16:52:57.943Z,335.15
2019-03-29T16:55:27.620Z,310.35
2019-03-29T16:57:57.342Z,312.32
2019-03-29T17:00:26.970Z,311.10
2019-03-29T17:02:56.723Z,326.88
2019-03-29T17:05:26.390Z,307.85
2019-03-29T17:07:56.267Z,314.13
2019-03-29T17:10:25.944Z,312.08
2019-03-29T17:12:55.636Z,341.95
2019-03-29T17:15:25.383Z,309.60
2019-03-29T17:17:54.965Z,296.48
2019-03-29T17:20:24.767Z,309.30
2019-03-29T17:22:54.342Z,315.75
2019-03-29T17:25:24.056Z,318.25
2019-03-29T17:27:53.647Z,300.73
2019-03-29T17:30:26.453Z,299.88
2019-03-29T17:32:56.156Z,296.40
2019-03-29T17:35:25.808Z,297.95
2019-03-29T17:37:55.685Z,315.20
2019-03-29T17:40:25.490Z,303.80
2019-03-29T17:42:56.587Z,298.45
2019-03-29T17:45:26.296Z,303.73
2019-03-29T17:47:56.145Z,301.70
2019-03-29T17:50:25.993Z,299.42
2019-03-29T17:52:55.867Z,331.60
2019-03-29T17:55:25.528Z,345.27
2019-03-29T17:57:55.215Z,343.80
2019-03-29T18:00:26.761Z,356.07
2019-03-29T18:02:56.419Z,350.22
2019-03-29T18:05:26.198Z,382.70
2019-03-29T18:07:55.979Z,355.37
2019-03-29T18:10:25.612Z,338.00
2019-03-29T18:12:55.295Z,375.60
2019-03-29T18:15:25.057Z,361.62
2019-03-29T18:17:54.681Z,376.20
2019-03-29T18:20:24.371Z,398.68
2019-03-29T18:22:54.081Z,353.30
2019-03-29T18:25:23.929Z,354.60
2019-03-29T18:27:53.630Z,388.80
2019-03-29T18:30:26.350Z,354.55
2019-03-29T18:32:56.045Z,344.45
2019-03-29T18:35:25.664Z,348.50
2019-03-29T18:37:55.478Z,363.45
2019-03-29T18:40:27.282Z,361.73
2019-03-29T18:42:57.083Z,357.95
2019-03-29T18:45:26.810Z,377.65
2019-03-29T18:47:56.586Z,375.87
2019-03-29T18:50:26.246Z,400.38
2019-03-29T18:52:55.940Z,434.45
2019-03-29T18:55:25.612Z,467.27
2019-03-29T18:57:55.239Z,484.05
2019-03-29T19:00:27.901Z,517.57
2019-03-29T19:02:57.550Z,519.02
2019-03-29T19:05:28.137Z,515.75
2019-03-29T19:07:58.145Z,528.98
2019-03-29T19:10:27.919Z,552.13
2019-03-29T19:12:57.722Z,538.42
2019-03-29T19:15:27.573Z,565.10
2019-03-29T19:17:57.261Z,549.50
2019-03-29T19:20:28.259Z,567.15
2019-03-29T19:22:58.462Z,579.15
2019-03-29T19:25:29.121Z,584.03
2019-03-29T19:27:58.813Z,568.53
2019-03-29T19:30:47.679Z,549.25
2019-03-29T19:33:17.323Z,549.70
2019-03-29T19:36:43.428Z,534.95
2019-03-29T19:39:13.157Z,513.98
2019-03-29T19:41:42.836Z,510.73
2019-03-29T19:44:13.779Z,524.20
2019-03-29T19:46:43.800Z,514.80
2019-03-29T19:49:13.575Z,508.27
2019-03-29T19:51:43.302Z,489.35
2019-03-29T19:54:12.882Z,500.05
2019-03-29T19:56:42.586Z,474.53
2019-03-29T19:59:12.518Z,490.02
2019-03-29T20:01:42.318Z,491.70
2019-03-29T20:04:12.039Z,529.90
2019-03-29T20:06:41.796Z,521.50
2019-03-29T20:09:11.573Z,506.50
2019-03-29T20:11:41.274Z,505.77
2019-03-29T20:14:12.522Z,472.80
2019-03-29T20:16:42.099Z,477.50
2019-03-29T20:19:11.786Z,490.32
2019-03-29T20:21:41.382Z,505.45
2019-03-29T20:24:11.080Z,506.97
2019-03-29T20:26:40.784Z,512.80
2019-03-29T20:29:10.638Z,474.82
2019-03-29T20:31:40.294Z,473.15
2019-03-29T20:34:09.936Z,475.55
2019-03-29T20:36:39.570Z,505.27
2019-03-29T20:39:09.341Z,512.08
2019-03-29T20:41:39.037Z,522.40
2019-03-29T20:44:08.761Z,486.90
2019-03-29T20:46:38.692Z,500.87
2019-03-29T20:49:08.371Z,475.42
2019-03-29T20:51:38.032Z,482.95
2019-03-29T20:54:07.837Z,490.20
2019-03-29T20:56:37.861Z,483.70
2019-03-29T20:59:07.568Z,494.25
2019-03-29T21:01:37.238Z,482.97
2019-03-29T21:04:06.941Z,515.73
2019-03-29T21:06:36.704Z,509.67
2019-03-29T21:09:07.606Z,538.98
2019-03-29T21:11:37.491Z,524.15
2019-03-29T21:14:07.616Z,504.85
2019-03-29T21:16:37.305Z,506.50
2019-03-29T21:19:07.001Z,487.60
2019-03-29T21:21:36.724Z,518.70
2019-03-29T21:24:06.523Z,503.80
2019-03-29T21:26:36.223Z,496.77
2019-03-29T21:29:05.929Z,475.00
2019-03-29T21:31:35.567Z,487.30
2019-03-29T21:34:05.294Z,482.85
2019-03-29T21:36:35.003Z,476.00
2019-03-29T21:39:08.142Z,477.02
2019-03-29T21:41:37.836Z,448.23
2019-03-29T21:44:07.714Z,451.57
2019-03-29T21:46:37.308Z,467.40
2019-03-29T21:49:07.008Z,490.28
2019-03-29T21:51:36.844Z,480.70
2019-03-29T21:54:06.646Z,510.23
2019-03-29T21:56:36.278Z,473.90
2019-03-29T21:59:06.120Z,439.10
2019-03-29T22:01:35.724Z,433.95
2019-03-29T22:04:05.406Z,441.40
2019-03-29T22:06:35.084Z,451.55
2019-03-29T22:09:07.019Z,432.93
2019-03-29T22:11:36.773Z,427.62
2019-03-29T22:14:07.270Z,423.82
2019-03-29T22:16:36.967Z,457.25
2019-03-29T22:19:06.612Z,450.98
2019-03-29T22:21:36.306Z,446.20
2019-03-29T22:24:06.044Z,427.57
2019-03-29T22:26:35.733Z,428.40
2019-03-29T22:29:05.433Z,407.80
2019-03-29T22:31:35.068Z,427.20
2019-03-29T22:34:04.679Z,453.70
2019-03-29T22:36:34.338Z,411.38
2019-03-29T22:39:06.315Z,424.82
2019-03-29T22:41:36.149Z,408.80
2019-03-29T22:44:05.795Z,407.68
2019-03-29T22:46:35.531Z,420.05
2019-03-29T22:49:05.293Z,419.50
2019-03-29T22:51:34.973Z,435.00
2019-03-29T22:54:04.614Z,421.83
2019-03-29T22:56:34.245Z,426.30
2019-03-29T22:59:04.048Z,441.80
2019-03-29T23:01:36.727Z,423.10
2019-03-29T23:04:06.484Z,428.20
2019-03-29T23:06:36.171Z,467.63
2019-03-29T23:09:07.399Z,467.77
2019-03-29T23:11:37.104Z,445.45
2019-03-29T23:14:06.920Z,456.40
2019-03-29T23:16:36.676Z,432.32
2019-03-29T23:19:07.223Z,435.82
2019-03-29T23:21:37.072Z,441.05
2019-03-29T23:24:06.752Z,436.10
2019-03-29T23:26:36.717Z,447.50
2019-03-29T23:29:06.494Z,430.57
2019-03-29T23:31:36.220Z,421.65
2019-03-29T23:34:06.108Z,399.77
2019-03-29T23:36:35.776Z,416.08
2019-03-29T23:39:06.219Z,431.80
2019-03-29T23:41:35.893Z,447.67
2019-03-29T23:44:05.599Z,439.97
2019-03-29T23:46:35.305Z,432.00
2019-03-29T23:49:05.051Z,422.30
2019-03-29T23:51:34.679Z,427.00
2019-03-29T23:54:04.535Z,429.92
2019-03-29T23:56:34.167Z,418.67
2019-03-29T23:59:03.828Z,424.90
